Time;durP1;ratioP1;P1;durP2;ratioP2;P2;SDS_P1;SDS_P2;PMS_P1;PMS_P2;Temp;Humidity;BMP_temperature;BMP_pressure;BME280_temperature;BME280_humidity;BME280_pressure;Samples;Min_cycle;Max_cycle;Signal;HPM_P1;HPM_P2
2021/09/29 00:04:47;;;;;;;1999.90;999.90;;;;;;;14.46;77.17;101682.78;15646777;28;20355;-58
2021/09/29 00:12:21;;;;;;;1999.90;999.90;;;;;;;14.33;77.18;101676.19;15660537;28;20041;-58
2021/09/29 00:19:57;;;;;;;1999.90;999.90;;;;;;;14.27;77.66;101671.06;15659615;28;20041;-59
2021/09/29 00:27:29;;;;;;;;;;;;;;;14.25;77.42;101659.34;15661552;28;20152;-57
2021/09/29 00:35:03;;;;;;;1999.90;999.90;;;;;;;14.16;77.51;101651.78;15679456;28;19920;-59
2021/09/29 00:42:36;;;;;;;1999.90;999.90;;;;;;;14.19;78.55;101653.13;15679354;28;20466;-57
2021/09/29 00:50:11;;;;;;;1999.90;999.90;;;;;;;14.24;78.39;101635.25;15679105;28;20118;-59
2021/09/29 00:57:43;;;;;;;1999.90;999.90;;;;;;;14.28;78.46;101639.88;15661209;28;20055;-59
2021/09/29 01:05:17;;;;;;;1999.90;999.90;;;;;;;14.32;79.14;101624.00;15648998;28;20460;-58
2021/09/29 01:12:53;;;;;;;1999.90;999.90;;;;;;;14.37;79.61;101606.94;15677526;28;20044;-58
2021/09/29 01:20:35;;;;;;;1999.90;999.90;;;;;;;14.54;79.64;101594.03;15638864;28;20140;-59
2021/09/29 01:28:12;;;;;;;1999.90;999.90;;;;;;;14.40;81.60;101591.44;15672148;28;20085;-58
2021/09/29 01:35:45;;;;;;;1999.90;999.90;;;;;;;14.55;81.83;101585.25;15675472;28;20116;-59
2021/09/29 01:43:20;;;;;;;1999.90;999.90;;;;;;;14.60;81.49;101570.22;15657314;28;20074;-59
2021/09/29 01:50:56;;;;;;;1999.90;999.90;;;;;;;14.53;81.45;101569.91;15657071;28;20061;-58
2021/09/29 01:58:32;;;;;;;1999.90;999.90;;;;;;;14.58;81.20;101564.09;15674557;28;20175;-59
2021/09/29 02:06:06;;;;;;;1999.90;999.90;;;;;;;14.60;81.32;101557.00;15668651;28;20052;-59
2021/09/29 02:13:39;;;;;;;1999.90;999.90;;;;;;;14.34;83.06;101556.28;15672727;28;20120;-58
2021/09/29 02:21:12;;;;;;;;;;;;;;;13.93;87.29;101551.34;15643100;28;20418;-59
2021/09/29 02:28:46;;;;;;;1999.90;999.90;;;;;;;13.86;88.67;101546.25;15646214;28;19927;-59
2021/09/29 02:36:19;;;;;;;1999.90;999.90;;;;;;;13.81;89.33;101538.00;15654651;28;20159;-58
2021/09/29 02:43:52;;;;;;;1999.90;999.90;;;;;;;14.09;88.48;101530.81;15671965;28;20048;-59
2021/09/29 02:51:25;;;;;;;1999.90;999.90;;;;;;;14.17;88.50;101534.72;15667998;22;20028;-60
2021/09/29 02:58:58;;;;;;;1999.90;999.90;;;;;;;14.19;88.43;101528.78;15699960;28;20094;-60
2021/09/29 03:06:30;;;;;;;;;;;;;;;14.35;88.16;101516.63;15703337;28;20136;-58
2021/09/29 03:14:04;;;;;;;1999.90;999.90;;;;;;;14.40;88.12;101515.63;15717508;28;20309;-58
2021/09/29 03:21:41;;;;;;;1999.90;999.90;;;;;;;14.37;88.02;101511.50;15689195;28;20037;-58
2021/09/29 03:29:24;;;;;;;1999.90;999.90;;;;;;;14.46;88.17;101502.22;15676186;28;20037;-57
2021/09/29 03:36:57;;;;;;;1999.90;999.90;;;;;;;14.31;88.22;101498.00;15679843;28;20071;-59
2021/09/29 03:44:30;;;;;;;1999.90;999.90;;;;;;;14.51;88.15;101490.81;15706193;28;20413;-59
2021/09/29 03:52:03;;;;;;;1999.90;999.90;;;;;;;14.53;88.97;101482.84;15719789;28;20045;-59
2021/09/29 03:59:37;;;;;;;1999.90;999.90;;;;;;;14.70;88.87;101474.31;15703542;28;20056;-58
2021/09/29 04:07:09;;;;;;;1999.90;999.90;;;;;;;14.64;89.19;101464.44;15688572;28;20529;-57
2021/09/29 04:14:43;;;;;;;1999.90;999.90;;;;;;;14.77;89.34;101454.06;15700690;28;20123;-58
2021/09/29 04:22:15;;;;;;;1999.90;999.90;;;;;;;14.89;89.12;101449.31;15687466;28;20032;-59
2021/09/29 04:29:49;;;;;;;1999.90;999.90;;;;;;;15.06;89.69;101437.13;15669997;28;20139;-58
2021/09/29 04:37:21;;;;;;;1999.90;999.90;;;;;;;15.14;89.87;101443.81;15702734;28;20612;-59
2021/09/29 04:45:00;;;;;;;1999.90;999.90;;;;;;;15.30;89.54;101436.34;15709212;28;20538;-59
2021/09/29 04:52:33;;;;;;;1999.90;999.90;;;;;;;15.31;90.07;101435.19;15738696;28;20045;-58
2021/09/29 05:00:29;;;;;;;1999.90;999.90;;;;;;;15.63;88.57;101430.72;15645754;28;20040;-59
2021/09/29 05:16:52;;;;;;;1999.90;999.90;;;;;;;15.48;89.69;101422.91;15615117;28;20501;-61
2021/09/29 05:24:24;;;;;;;1999.90;999.90;;;;;;;15.49;90.14;101428.19;15625532;28;20137;-60
2021/09/29 05:31:58;;;;;;;1999.90;999.90;;;;;;;15.69;88.97;101401.16;15619517;28;20387;-60
2021/09/29 05:39:30;;;;;;;1999.90;999.90;;;;;;;15.91;88.18;101410.31;15600990;28;20040;-59
2021/09/29 05:47:04;;;;;;;1999.90;999.90;;;;;;;15.81;88.65;101389.91;15600699;28;20252;-59
2021/09/29 05:54:36;;;;;;;1999.90;999.90;;;;;;;15.85;88.70;101388.06;15601067;28;20091;-61
2021/09/29 06:02:11;;;;;;;1999.90;999.90;;;;;;;16.16;87.57;101395.06;15617940;28;20052;-59
2021/09/29 06:09:44;;;;;;;1999.90;999.90;;;;;;;16.16;87.20;101384.59;15618019;28;20152;-59
2021/09/29 06:17:23;;;;;;;1999.90;999.90;;;;;;;16.04;88.09;101372.53;15616677;28;20045;-58
2021/09/29 06:24:55;;;;;;;1999.90;999.90;;;;;;;15.93;89.34;101351.66;15635703;28;20405;-58
2021/09/29 06:32:29;;;;;;;1999.90;999.90;;;;;;;16.23;88.08;101352.19;15668104;28;20557;-58
2021/09/29 06:40:01;;;;;;;1999.90;999.90;;;;;;;16.34;87.63;101348.53;15660562;28;20068;-60
2021/09/29 06:47:35;;;;;;;1999.90;999.90;;;;;;;16.40;87.42;101346.28;15676430;28;20561;-61
2021/09/29 06:55:08;;;;;;;1999.90;999.90;;;;;;;16.30;88.30;101341.16;15666426;28;20489;-60
2021/09/29 07:02:43;;;;;;;;;;;;;;;16.47;88.09;101328.78;15655706;28;20128;-61
2021/09/29 07:10:16;;;;;;;1999.90;999.90;;;;;;;16.66;87.69;101310.00;15675195;28;19956;-59
2021/09/29 07:17:55;;;;;;;1999.90;999.90;;;;;;;16.65;87.74;101302.72;15669239;28;20041;-58
2021/09/29 07:25:30;;;;;;;1999.90;999.90;;;;;;;16.74;87.57;101296.97;15673961;28;20040;-58
2021/09/29 07:33:04;;;;;;;1999.90;999.90;;;;;;;16.85;87.35;101297.25;15687859;28;20076;-60
2021/09/29 07:40:38;;;;;;;1999.90;999.90;;;;;;;16.39;89.75;101275.06;15687355;28;20502;-60
2021/09/29 07:48:13;;;;;;;1999.90;999.90;;;;;;;16.66;89.27;101286.63;15669286;28;20041;-59
2021/09/29 07:55:45;;;;;;;1999.90;999.90;;;;;;;16.54;90.66;101306.44;15667728;28;20132;-59
2021/09/29 08:03:19;;;;;;;1999.90;999.90;;;;;;;16.33;92.04;101281.28;15686575;28;20094;-59
2021/09/29 08:10:51;;;;;;;1999.90;999.90;;;;;;;16.36;92.75;101256.06;15682539;28;20055;-59
2021/09/29 08:18:24;;;;;;;1999.90;999.90;;;;;;;16.13;94.55;101261.41;15650288;28;20055;-60
2021/09/29 08:49:31;;;;;;;1999.90;999.90;;;;;;;16.78;91.43;101266.91;15684324;28;20060;-60
2021/09/29 08:57:33;;;;;;;1999.90;999.90;;;;;;;16.69;92.11;101269.06;15666845;28;20044;-62
2021/09/29 09:20:55;;;;;;;1999.90;999.90;;;;;;;17.07;89.72;101261.97;15681937;28;20405;-61
2021/09/29 09:28:29;;;;;;;1999.90;999.90;;;;;;;17.10;89.48;101256.44;15673011;28;20098;-62
2021/09/29 09:36:06;;;;;;;1999.90;999.90;;;;;;;17.07;90.35;101251.53;15677249;28;20068;-63
2021/09/29 09:43:38;;;;;;;1999.90;999.90;;;;;;;16.96;91.57;101248.44;15679171;28;20045;-59
2021/09/29 09:51:13;;;;;;;1999.90;999.90;;;;;;;17.01;92.75;101236.91;15659302;28;20045;-63
2021/09/29 09:58:46;;;;;;;1999.90;999.90;;;;;;;17.34;91.06;101232.03;15676480;28;20049;-59
2021/09/29 10:06:22;;;;;;;1999.90;999.90;;;;;;;17.16;92.09;101235.22;15677204;28;20083;-56
2021/09/29 10:29:56;;;;;;;1999.90;999.90;;;;;;;17.62;90.11;101238.34;15631830;28;20041;-62
2021/09/29 10:37:54;;;;;;;1999.90;999.90;;;;;;;17.40;90.84;101237.00;15645633;28;20485;-62
2021/09/29 10:45:46;;;;;;;1999.90;999.90;;;;;;;17.56;89.66;101240.63;15673022;28;20091;-62
2021/09/29 11:33:13;;;;;;;1999.90;999.90;;;;;;;17.50;90.50;101227.97;15659944;28;20135;-62
2021/09/29 12:12:18;;;;;;;1999.90;999.90;;;;;;;17.85;87.17;101196.16;15666043;28;20052;-63
2021/09/29 12:19:54;;;;;;;1999.90;999.90;;;;;;;18.01;84.35;101188.41;15680119;28;20045;-63
2021/09/29 12:27:35;;;;;;;1999.90;999.90;;;;;;;18.29;84.18;101190.16;15666030;28;20090;-64
2021/09/29 12:35:16;;;;;;;1999.90;999.90;;;;;;;18.12;84.00;101186.59;15662353;28;20045;-63
2021/09/29 12:42:57;;;;;;;1999.90;999.90;;;;;;;18.24;83.65;101180.00;15663620;28;20398;-58
2021/09/29 12:50:38;;;;;;;1999.90;999.90;;;;;;;18.28;80.97;101189.34;15678401;28;20055;-63
2021/09/29 12:58:12;;;;;;;1999.90;999.90;;;;;;;18.47;81.70;101191.31;15680571;28;20049;-63
2021/09/29 13:05:45;;;;;;;1999.90;999.90;;;;;;;18.33;82.18;101196.69;15677936;28;20045;-62
2021/09/29 13:13:18;;;;;;;1999.90;999.90;;;;;;;18.79;80.84;101194.75;15679609;28;20071;-63
2021/09/29 13:20:55;;;;;;;1999.90;999.90;;;;;;;18.71;80.00;101193.81;15652489;28;20560;-64
2021/09/29 13:36:34;;;;;;;1999.90;999.90;;;;;;;18.37;82.22;101215.34;15644575;28;20448;-63
2021/09/29 13:44:09;;;;;;;1999.90;999.90;;;;;;;18.61;81.35;101199.22;15656872;28;20080;-62
2021/09/29 13:51:45;;;;;;;1999.90;999.90;;;;;;;19.03;78.66;101202.81;15658639;28;20510;-63
2021/09/29 13:59:31;;;;;;;1999.90;999.90;;;;;;;18.73;80.12;101197.06;15676459;28;20045;-64
2021/09/29 14:30:43;;;;;;;1999.90;999.90;;;;;;;19.08;77.67;101179.06;15661097;28;20048;-63
2021/09/29 14:38:15;;;;;;;1999.90;999.90;;;;;;;19.16;77.85;101169.47;15654637;28;20132;-61
2021/09/29 14:45:51;;;;;;;1999.90;999.90;;;;;;;19.40;76.65;101182.38;15674122;28;20041;-63
2021/09/29 14:53:25;;;;;;;1999.90;999.90;;;;;;;19.23;77.46;101185.75;15674960;28;20048;-63
2021/09/29 15:00:59;;;;;;;1999.90;999.90;;;;;;;18.85;79.03;101183.94;15658959;28;20052;-61
2021/09/29 15:08:32;;;;;;;1999.90;999.90;;;;;;;18.83;79.09;101178.66;15677740;28;20124;-60
2021/09/29 15:16:07;;;;;;;1999.90;999.90;;;;;;;19.21;78.02;101182.50;15658725;28;20095;-61
2021/09/29 15:23:56;;;;;;;1999.90;999.90;;;;;;;18.96;78.69;101180.06;15657404;28;20049;-62
2021/09/29 15:31:49;;;;;;;1999.90;999.90;;;;;;;18.69;79.23;101181.25;15676612;28;20411;-62
2021/09/29 15:47:26;;;;;;;1999.90;999.90;;;;;;;18.64;80.02;101165.41;15658116;28;20052;-61
2021/09/29 15:55:09;;;;;;;1999.90;999.90;;;;;;;18.62;79.58;101167.75;15654030;28;20551;-61
2021/09/29 16:02:51;;;;;;;1999.90;999.90;;;;;;;18.63;79.40;101177.06;15681711;28;20083;-60
2021/09/29 16:18:41;;;;;;;1999.90;999.90;;;;;;;18.58;79.14;101175.38;15640961;28;20307;-61
2021/09/29 16:34:16;;;;;;;1999.90;999.90;;;;;;;18.17;80.13;101185.50;15676110;28;20057;-62
2021/09/29 16:41:56;;;;;;;1999.90;999.90;;;;;;;18.25;79.63;101180.81;15682056;28;20041;-62
2021/09/29 16:49:29;;;;;;;1999.90;999.90;;;;;;;17.93;80.66;101185.81;15623208;28;20055;-61
2021/09/29 16:57:06;;;;;;;1999.90;999.90;;;;;;;17.90;80.08;101190.19;15675541;28;20045;-60
2021/09/29 17:04:40;;;;;;;1999.90;999.90;;;;;;;17.96;79.66;101197.19;15661270;28;20455;-59
2021/09/29 17:12:14;;;;;;;1999.90;999.90;;;;;;;17.70;80.67;101200.66;15658441;28;20132;-61
2021/09/29 17:19:48;;;;;;;1999.90;999.90;;;;;;;17.87;80.32;101197.41;15660256;28;20099;-61
2021/09/29 17:27:21;;;;;;;1999.90;999.90;;;;;;;17.70;80.19;101192.19;15660436;28;20474;-63
2021/09/29 17:34:58;;;;;;;1999.90;999.90;;;;;;;17.79;80.29;101204.06;15656206;28;20417;-63
2021/09/29 17:58:15;;;;;;;1999.90;999.90;;;;;;;17.08;69.62;101284.16;15661609;28;20075;-60
2021/09/29 18:05:52;;;;;;;1999.90;999.90;;;;;;;16.80;70.12;101295.53;15679662;28;20045;-61
2021/09/29 18:13:25;;;;;;;1999.90;999.90;;;;;;;16.64;71.35;101337.72;15673864;28;20102;-60
2021/09/29 18:20:58;;;;;;;1999.90;999.90;;;;;;;15.98;73.70;101349.44;15669967;28;20075;-60
2021/09/29 18:28:31;;;;;;;1999.90;999.90;;;;;;;16.07;73.67;101366.22;15660640;28;20037;-60
2021/09/29 18:36:09;;;;;;;1999.90;999.90;;;;;;;15.95;74.12;101375.50;15638629;28;20099;-61
2021/09/29 18:43:42;;;;;;;1999.90;999.90;;;;;;;15.93;73.16;101377.00;15659218;28;20107;-60
2021/09/29 18:51:16;;;;;;;1999.90;999.90;;;;;;;15.70;74.65;101394.38;15659362;28;20060;-61
2021/09/29 19:14:49;;;;;;;1999.90;999.90;;;;;;;15.56;75.32;101422.00;15671130;28;20472;-62
2021/09/29 19:22:23;;;;;;;1999.90;999.90;;;;;;;15.37;76.38;101431.00;15680679;28;20041;-61
2021/09/29 19:29:56;;;;;;;1999.90;999.90;;;;;;;15.09;77.09;101433.59;15686498;28;20052;-60
2021/09/29 19:37:31;;;;;;;1999.90;999.90;;;;;;;15.37;75.39;101432.97;15670101;28;20073;-61
2021/09/29 19:45:29;;;;;;;1999.90;999.90;;;;;;;15.22;74.37;101438.13;15685919;28;20064;-60
2021/09/29 20:08:49;;;;;;;;;;;;;;;14.95;72.98;101452.75;15670717;28;20116;-62
2021/09/29 20:16:32;;;;;;;1999.90;999.90;;;;;;;14.79;71.36;101455.38;15685924;28;20019;-61
2021/09/29 20:24:23;;;;;;;1999.90;999.90;;;;;;;14.71;70.44;101470.34;15668936;28;20045;-62
2021/09/29 20:32:25;;;;;;;1999.90;999.90;;;;;;;14.56;71.05;101479.34;15683703;28;20057;-62
2021/09/29 20:48:43;;;;;;;1999.90;999.90;;;;;;;14.32;69.92;101496.84;15631881;28;20057;-62
2021/09/29 20:56:39;;;;;;;1999.90;999.90;;;;;;;14.17;69.88;101498.22;15682711;28;20095;-62
2021/09/29 21:04:11;;;;;;;1999.90;999.90;;;;;;;14.08;69.94;101497.47;15661371;28;20076;-61
2021/09/29 21:12:06;;;;;;;1999.90;999.90;;;;;;;13.74;71.08;101509.66;15665260;28;20513;-61
2021/09/29 21:19:38;;;;;;;1999.90;999.90;;;;;;;13.89;70.80;101525.13;15659168;28;20041;-58
2021/09/29 21:27:11;;;;;;;1999.90;999.90;;;;;;;13.63;70.63;101540.03;15682034;28;20041;-61
2021/09/29 21:34:44;;;;;;;1999.90;999.90;;;;;;;13.66;71.28;101550.63;15681778;28;20441;-61
2021/09/29 21:42:26;;;;;;;;;;;;;;;13.54;71.86;101553.25;15681437;28;20079;-59
2021/09/29 22:14:06;;;;;;;1999.90;999.90;;;;;;;13.28;71.85;101578.53;15678868;28;20075;-61
2021/09/29 22:21:59;;;;;;;1999.90;999.90;;;;;;;13.18;71.65;101585.25;15663076;28;20033;-60
2021/09/29 23:09:36;;;;;;;1999.90;999.90;;;;;;;12.40;70.83;101629.94;15676206;28;20055;-61
2021/09/29 23:32:52;;;;;;;1999.90;999.90;;;;;;;12.41;70.64;101645.56;15658125;28;20053;-61
2021/09/29 23:40:27;;;;;;;1999.90;999.90;;;;;;;12.42;70.60;101647.22;15659899;28;20056;-60
2021/09/29 23:48:00;;;;;;;1999.90;999.90;;;;;;;12.19;70.34;101647.59;15676664;28;20069;-59
2021/09/29 23:55:53;;;;;;;;;;;;;;;12.36;69.76;101661.66;15676446;28;20049;-60
